Time;durP1;ratioP1;P1;durP2;ratioP2;P2;SDS_P1;SDS_P2;PMS_P1;PMS_P2;Temp;Humidity;BMP_temperature;BMP_pressure;BME280_temperature;BME280_humidity;BME280_pressure;Samples;Min_cycle;Max_cycle;Signal;HPM_P1;HPM_P2
2024/01/16 00:00:44;;;;;;;1.33;1.23;;;1.10;99.90;;;;;;5045909;28;20741;-70
2024/01/16 00:03:11;;;;;;;4.37;1.30;;;1.00;99.90;;;;;;5046005;28;20305;-70
2024/01/16 00:05:38;;;;;;;2.80;0.90;;;1.00;99.90;;;;;;5046290;28;20281;-71
2024/01/16 00:08:06;;;;;;;1.53;0.90;;;0.90;99.90;;;;;;5045607;28;20208;-71
2024/01/16 00:10:33;;;;;;;3.30;0.90;;;0.80;99.90;;;;;;5045722;28;20299;-72
2024/01/16 00:13:00;;;;;;;1.80;0.90;;;0.80;99.90;;;;;;5046107;28;20235;-71
2024/01/16 00:15:27;;;;;;;2.10;0.80;;;0.90;99.90;;;;;;5046829;28;20244;-71
2024/01/16 00:17:54;;;;;;;1.87;0.97;;;0.80;99.90;;;;;;5049674;28;20614;-72
2024/01/16 00:20:22;;;;;;;3.07;1.00;;;0.80;99.90;;;;;;5049890;28;20214;-72
2024/01/16 00:22:48;;;;;;;3.90;1.20;;;0.80;99.90;;;;;;5049199;28;20290;-72
2024/01/16 00:25:19;;;;;;;2.10;1.00;;;0.90;99.90;;;;;;5049669;28;20200;-72
2024/01/16 00:27:46;;;;;;;3.80;0.97;;;0.90;99.90;;;;;;5049734;28;20209;-72
2024/01/16 00:30:14;;;;;;;2.20;0.80;;;0.90;99.90;;;;;;5049630;28;20208;-72
2024/01/16 00:32:41;;;;;;;1.60;1.03;;;0.90;99.90;;;;;;5049487;28;20228;-72
2024/01/16 00:35:08;;;;;;;2.40;1.00;;;1.00;99.90;;;;;;5049263;28;20716;-72
2024/01/16 00:37:36;;;;;;;1.90;1.20;;;0.90;99.90;;;;;;5049102;28;20243;-72
2024/01/16 00:40:04;;;;;;;1.20;0.90;;;0.90;99.90;;;;;;5049417;28;20287;-72
2024/01/16 00:42:32;;;;;;;1.77;1.00;;;0.90;99.90;;;;;;5049332;28;20783;-72
2024/01/16 00:44:59;;;;;;;2.40;0.80;;;0.90;99.90;;;;;;5048987;28;20262;-72
2024/01/16 00:47:26;;;;;;;2.57;0.97;;;0.90;99.90;;;;;;5049128;28;20301;-72
2024/01/16 00:49:53;;;;;;;2.13;0.93;;;1.00;99.90;;;;;;5047443;28;20265;-72
2024/01/16 00:52:20;;;;;;;1.33;0.80;;;1.00;99.90;;;;;;5049061;28;20597;-70
2024/01/16 00:54:47;;;;;;;2.43;1.10;;;0.90;99.90;;;;;;5049174;28;20211;-70
2024/01/16 00:57:16;;;;;;;1.10;0.83;;;0.80;99.90;;;;;;5049460;28;20701;-71
2024/01/16 00:59:44;;;;;;;1.37;1.00;;;0.80;99.90;;;;;;5049251;28;20231;-70
2024/01/16 01:02:11;;;;;;;3.20;1.27;;;0.80;99.90;;;;;;5049094;28;20291;-70
2024/01/16 01:04:37;;;;;;;1.97;1.20;;;0.80;99.90;;;;;;5048752;28;20602;-71
2024/01/16 01:07:04;;;;;;;0.93;0.87;;;0.70;99.90;;;;;;5048409;28;20204;-71
2024/01/16 01:09:34;;;;;;;2.30;1.00;;;0.70;99.90;;;;;;5048962;28;20247;-71
2024/01/16 01:12:00;;;;;;;2.20;1.20;;;0.60;99.90;;;;;;5048690;28;20365;-70
2024/01/16 01:14:29;;;;;;;0.83;0.83;;;0.60;99.90;;;;;;5048819;28;20263;-70
2024/01/16 01:16:58;;;;;;;1.10;0.70;;;0.60;99.90;;;;;;5048771;28;20625;-70
2024/01/16 01:19:24;;;;;;;2.43;1.40;;;0.50;99.90;;;;;;5048831;28;20243;-72
2024/01/16 01:21:51;;;;;;;1.37;1.20;;;0.50;99.90;;;;;;5048453;28;20317;-71
2024/01/16 01:24:18;;;;;;;1.07;0.73;;;0.40;99.90;;;;;;5048807;28;20291;-71
2024/01/16 01:26:45;;;;;;;2.80;1.33;;;0.40;99.90;;;;;;5048441;28;20705;-72
2024/01/16 01:29:12;;;;;;;0.93;0.93;;;0.40;99.90;;;;;;5048511;28;20321;-71
2024/01/16 01:31:39;;;;;;;1.30;1.00;;;0.40;99.90;;;;;;5048415;28;20281;-71
2024/01/16 01:34:07;;;;;;;0.90;0.90;;;0.40;99.90;;;;;;5048605;28;20295;-71
2024/01/16 01:36:34;;;;;;;1.63;1.20;;;0.30;99.90;;;;;;5048326;28;20222;-71
2024/01/16 01:39:03;;;;;;;1.47;1.00;;;0.30;99.90;;;;;;5048538;28;20216;-71
2024/01/16 01:41:29;;;;;;;1.60;0.90;;;0.20;99.90;;;;;;5048536;28;20246;-71
2024/01/16 01:43:56;;;;;;;2.70;1.10;;;0.20;99.90;;;;;;5048049;28;20235;-71
2024/01/16 01:46:24;;;;;;;1.17;1.07;;;0.20;99.90;;;;;;5048348;28;20601;-71
2024/01/16 01:48:51;;;;;;;1.57;0.87;;;0.20;99.90;;;;;;5047788;28;20752;-71
2024/01/16 01:51:20;;;;;;;2.10;1.23;;;0.20;99.90;;;;;;5048011;28;20287;-71
2024/01/16 01:53:50;;;;;;;1.30;1.00;;;0.10;99.90;;;;;;5048014;28;20210;-71
2024/01/16 01:56:19;;;;;;;1.30;1.20;;;0.10;99.90;;;;;;5048098;28;20206;-72
2024/01/16 01:58:48;;;;;;;2.43;1.33;;;0.10;99.90;;;;;;5047650;28;20323;-71
2024/01/16 02:01:18;;;;;;;3.23;1.10;;;0.10;99.90;;;;;;5047936;28;20751;-71
2024/01/16 02:03:46;;;;;;;2.53;1.00;;;0.10;99.90;;;;;;5047837;28;20240;-71
2024/01/16 02:06:15;;;;;;;1.00;1.00;;;0.10;99.90;;;;;;5047577;28;20240;-70
2024/01/16 02:08:43;;;;;;;2.87;1.37;;;0.10;99.90;;;;;;5047220;28;20207;-71
2024/01/16 02:11:10;;;;;;;2.50;1.37;;;0.10;99.90;;;;;;5047699;28;20204;-71
2024/01/16 02:13:37;;;;;;;1.10;1.00;;;0.10;99.90;;;;;;5047775;28;20234;-75
2024/01/16 02:16:05;;;;;;;3.20;1.23;;;0.10;99.90;;;;;;5047526;28;20834;-71
2024/01/16 02:18:32;;;;;;;1.93;1.07;;;0.10;99.90;;;;;;5047335;28;20720;-71
2024/01/16 02:21:01;;;;;;;2.50;1.23;;;0.10;99.90;;;;;;5047146;28;21028;-71
2024/01/16 02:23:30;;;;;;;1.13;1.03;;;0.20;99.90;;;;;;5047096;28;20758;-72
2024/01/16 02:25:57;;;;;;;1.87;1.00;;;0.20;99.90;;;;;;5047407;28;20619;-71
2024/01/16 02:28:24;;;;;;;1.47;1.20;;;0.10;99.90;;;;;;5047458;28;20239;-71
2024/01/16 02:30:51;;;;;;;1.70;1.60;;;0.10;99.90;;;;;;5047604;28;20626;-71
2024/01/16 02:33:18;;;;;;;4.23;1.40;;;0.10;99.90;;;;;;5047379;28;20259;-71
2024/01/16 02:35:44;;;;;;;2.60;1.37;;;0.20;99.90;;;;;;5047212;28;20289;-71
2024/01/16 02:38:11;;;;;;;3.60;0.97;;;0.20;99.90;;;;;;5046362;28;20303;-71
2024/01/16 02:40:40;;;;;;;2.13;1.30;;;0.20;99.90;;;;;;5046820;28;20208;-71
2024/01/16 02:43:07;;;;;;;1.33;1.23;;;0.20;99.90;;;;;;5047003;28;20569;-72
2024/01/16 02:45:34;;;;;;;1.93;1.30;;;0.20;99.90;;;;;;5047307;28;20621;-71
2024/01/16 02:48:01;;;;;;;2.77;1.50;;;0.20;99.90;;;;;;5047247;28;20315;-71
2024/01/16 02:50:28;;;;;;;1.13;1.13;;;0.00;99.90;;;;;;5047206;28;20577;-71
2024/01/16 02:52:55;;;;;;;2.60;1.40;;;0.00;99.90;;;;;;5046620;28;20245;-71
2024/01/16 02:55:22;;;;;;;1.80;1.30;;;0.00;99.90;;;;;;5046799;28;20317;-71
2024/01/16 02:57:50;;;;;;;2.77;1.37;;;0.00;99.90;;;;;;5047330;28;20719;-71
2024/01/16 03:00:18;;;;;;;2.90;1.33;;;0.00;99.90;;;;;;5047231;28;20314;-71
2024/01/16 03:02:45;;;;;;;2.23;1.47;;;0.00;99.90;;;;;;5047188;28;20575;-70
2024/01/16 03:05:12;;;;;;;3.73;1.50;;;0.00;99.90;;;;;;5046737;28;20719;-71
2024/01/16 03:07:39;;;;;;;2.63;1.63;;;0.00;99.90;;;;;;5046606;28;20254;-71
2024/01/16 03:10:06;;;;;;;1.73;1.63;;;-0.10;99.90;;;;;;5046549;28;20208;-71
2024/01/16 03:12:33;;;;;;;1.70;1.47;;;-0.10;99.90;;;;;;5046923;28;20316;-72
2024/01/16 03:15:01;;;;;;;1.70;1.47;;;-0.40;99.90;;;;;;5046546;28;20247;-72
2024/01/16 03:17:28;;;;;;;3.43;1.60;;;-0.50;99.90;;;;;;5046894;28;20219;-72
2024/01/16 03:19:55;;;;;;;1.03;1.03;;;-0.50;99.90;;;;;;5043923;28;20299;-70
2024/01/16 03:22:22;;;;;;;2.50;1.30;;;-0.60;99.90;;;;;;5048653;28;20207;-71
2024/01/16 03:24:50;;;;;;;0.97;0.97;;;-0.60;99.90;;;;;;5045853;28;20246;-70
2024/01/16 03:27:17;;;;;;;1.77;1.37;;;-0.60;99.90;;;;;;5046001;28;20211;-70
2024/01/16 03:29:43;;;;;;;1.63;1.40;;;-0.60;99.90;;;;;;5045135;28;20235;-69
2024/01/16 03:32:12;;;;;;;1.93;1.47;;;-0.50;99.90;;;;;;5044598;28;20327;-70
2024/01/16 03:34:40;;;;;;;1.63;1.17;;;-0.50;99.90;;;;;;5044816;28;20642;-70
2024/01/16 03:37:07;;;;;;;1.93;1.20;;;-0.60;99.90;;;;;;5041067;28;20204;-70
2024/01/16 03:39:33;;;;;;;1.83;1.17;;;-0.70;99.90;;;;;;5041950;28;20320;-69
2024/01/16 03:42:00;;;;;;;2.13;1.10;;;-0.70;99.90;;;;;;5044637;28;20290;-70
2024/01/16 03:44:27;;;;;;;2.67;1.10;;;-0.70;99.90;;;;;;5043758;28;20298;-70
2024/01/16 03:46:54;;;;;;;1.33;1.07;;;-0.70;99.90;;;;;;5044316;28;20208;-70
2024/01/16 03:49:23;;;;;;;0.83;0.83;;;-0.80;99.90;;;;;;5045494;28;20258;-69
2024/01/16 03:51:50;;;;;;;2.87;1.13;;;-0.70;99.90;;;;;;5048272;28;20304;-70
2024/01/16 03:54:17;;;;;;;1.77;1.13;;;-0.60;99.90;;;;;;5048143;28;20273;-70
2024/01/16 03:56:44;;;;;;;1.40;1.30;;;-0.50;99.90;;;;;;5049550;28;20269;-70
2024/01/16 03:59:11;;;;;;;2.30;1.40;;;-0.50;99.90;;;;;;5050216;28;20281;-70
2024/01/16 04:01:37;;;;;;;1.63;1.33;;;-0.40;99.90;;;;;;5049209;28;20291;-70
2024/01/16 04:04:06;;;;;;;2.00;1.10;;;-0.40;99.90;;;;;;5048815;28;20351;-69
2024/01/16 04:06:34;;;;;;;1.40;1.30;;;-0.30;99.90;;;;;;5048528;28;20207;-69
2024/01/16 04:09:02;;;;;;;2.10;1.33;;;-0.20;99.90;;;;;;5049121;28;20291;-69
2024/01/16 04:11:30;;;;;;;1.63;1.10;;;-0.30;99.90;;;;;;5049000;28;20208;-69
2024/01/16 04:13:57;;;;;;;2.47;1.50;;;-0.30;99.90;;;;;;5048842;28;20333;-70
2024/01/16 04:16:24;;;;;;;1.43;1.17;;;-0.30;99.90;;;;;;5049141;28;20223;-70
2024/01/16 04:18:51;;;;;;;1.10;1.00;;;-0.40;99.90;;;;;;5049877;28;20208;-70
2024/01/16 04:21:18;;;;;;;2.40;1.00;;;-0.40;99.90;;;;;;5049914;28;20765;-70
2024/01/16 04:23:46;;;;;;;1.97;0.73;;;-0.40;99.90;;;;;;5049666;28;20291;-70
2024/01/16 04:26:13;;;;;;;1.63;1.10;;;-0.50;99.90;;;;;;5049969;28;20215;-69
2024/01/16 04:28:40;;;;;;;1.87;1.40;;;-0.50;99.90;;;;;;5049969;28;20584;-70
2024/01/16 04:31:07;;;;;;;2.10;1.30;;;-0.40;99.90;;;;;;5049616;28;20232;-70
2024/01/16 04:33:34;;;;;;;1.30;1.20;;;-0.40;99.90;;;;;;5049430;28;20335;-70
2024/01/16 04:36:00;;;;;;;1.40;1.03;;;-0.30;99.90;;;;;;5049517;28;20291;-70
2024/01/16 04:38:27;;;;;;;1.10;1.00;;;-0.40;99.90;;;;;;5040694;28;20209;-70
2024/01/16 04:40:56;;;;;;;1.70;1.07;;;-0.30;99.90;;;;;;5029684;28;20299;-70
2024/01/16 04:43:23;;;;;;;2.83;1.10;;;-0.40;99.90;;;;;;5029450;28;20211;-70
2024/01/16 04:45:50;;;;;;;1.10;1.10;;;-0.50;99.90;;;;;;5029476;28;20395;-70
2024/01/16 04:48:16;;;;;;;1.03;1.03;;;-0.60;99.90;;;;;;5048542;28;20725;-70
2024/01/16 04:50:45;;;;;;;1.93;1.20;;;-0.60;99.90;;;;;;5049318;28;20269;-69
2024/01/16 04:53:12;;;;;;;3.80;1.57;;;-0.60;99.90;;;;;;5049070;28;20258;-70
2024/01/16 04:55:39;;;;;;;1.30;1.20;;;-0.60;99.90;;;;;;5049301;28;20234;-70
2024/01/16 04:58:07;;;;;;;2.27;1.30;;;-0.70;99.90;;;;;;5049241;28;20266;-70
2024/01/16 05:00:34;;;;;;;3.03;1.93;;;-0.70;99.90;;;;;;5049140;28;20460;-70
2024/01/16 05:03:03;;;;;;;1.97;1.87;;;-0.70;99.90;;;;;;5048466;28;20208;-70
2024/01/16 05:05:30;;;;;;;4.20;1.40;;;-0.70;99.90;;;;;;5009611;28;20205;-70
2024/01/16 05:07:57;;;;;;;2.90;1.50;;;-0.80;99.90;;;;;;5008925;28;20646;-70
2024/01/16 05:10:24;;;;;;;1.90;1.70;;;-0.80;99.90;;;;;;5009332;28;20205;-70
2024/01/16 05:12:51;;;;;;;3.13;2.30;;;-0.80;99.90;;;;;;5009224;28;20791;-70
2024/01/16 05:15:20;;;;;;;5.27;3.10;;;-0.80;99.90;;;;;;5008806;28;20791;-70
2024/01/16 05:17:47;;;;;;;2.20;2.00;;;-0.70;99.90;;;;;;5009173;28;20300;-70
2024/01/16 05:20:14;;;;;;;2.93;2.67;;;-0.70;99.90;;;;;;5009184;28;20216;-70
2024/01/16 05:22:40;;;;;;;1.97;1.87;;;-0.70;99.90;;;;;;5009192;28;20208;-70
2024/01/16 05:25:08;;;;;;;2.10;1.80;;;-0.70;99.90;;;;;;5008999;28;20304;-70
2024/01/16 05:27:35;;;;;;;5.00;3.70;;;-0.70;99.90;;;;;;5008565;28;20205;-71
2024/01/16 05:30:03;;;;;;;7.60;6.73;;;-0.70;99.90;;;;;;5008165;28;20213;-70
2024/01/16 05:32:31;;;;;;;2.67;2.47;;;-0.80;99.90;;;;;;5008892;28;20274;-70
2024/01/16 05:34:58;;;;;;;2.70;2.30;;;-0.80;99.90;;;;;;5008819;28;20229;-70
2024/01/16 05:37:25;;;;;;;3.37;2.10;;;-0.70;99.90;;;;;;5008533;28;20228;-70
2024/01/16 05:39:52;;;;;;;6.33;2.30;;;-0.90;99.90;;;;;;5008052;28;20267;-70
2024/01/16 05:42:19;;;;;;;2.30;2.07;;;-0.80;99.90;;;;;;5008609;28;20241;-69
2024/01/16 05:44:46;;;;;;;3.17;2.03;;;-0.80;99.90;;;;;;5008566;28;20745;-70
2024/01/16 05:47:13;;;;;;;1.90;1.70;;;-0.80;99.90;;;;;;5008688;28;20572;-70
2024/01/16 05:49:42;;;;;;;4.37;2.10;;;-0.80;99.90;;;;;;5008472;28;21009;-70
2024/01/16 05:52:10;;;;;;;4.83;4.33;;;-0.90;99.90;;;;;;5007835;28;20220;-70
2024/01/16 05:54:37;;;;;;;4.87;4.23;;;-0.80;99.90;;;;;;5007274;28;20241;-70
2024/01/16 05:57:04;;;;;;;3.57;3.27;;;-0.70;99.90;;;;;;5005694;28;20425;-70
2024/01/16 05:59:31;;;;;;;2.40;2.20;;;-0.80;99.90;;;;;;5008385;28;20232;-70
2024/01/16 06:01:57;;;;;;;2.60;2.40;;;-0.80;99.90;;;;;;5008380;28;20305;-70
2024/01/16 06:04:25;;;;;;;2.33;2.10;;;-0.90;99.90;;;;;;5030226;28;21001;-70
2024/01/16 06:06:53;;;;;;;4.57;3.40;;;-0.90;99.90;;;;;;5047801;28;20206;-70
2024/01/16 06:09:20;;;;;;;11.60;9.07;;;-0.80;99.90;;;;;;5047503;28;21010;-70
2024/01/16 06:11:47;;;;;;;9.17;6.57;;;-0.80;99.90;;;;;;5047873;28;20526;-70
2024/01/16 06:14:21;;;;;;;3.33;2.80;;;-0.80;99.90;;;;;;5046976;28;20235;-70
2024/01/16 06:16:48;;;;;;;2.10;1.83;;;-0.70;99.90;;;;;;5047724;28;20314;-70
2024/01/16 06:19:15;;;;;;;3.97;2.20;;;-0.70;99.90;;;;;;5047269;28;20212;-70
2024/01/16 06:21:42;;;;;;;4.00;1.97;;;-0.70;99.90;;;;;;5046875;28;20212;-69
2024/01/16 06:24:13;;;;;;;2.97;2.10;;;-0.70;99.90;;;;;;5047682;28;20322;-70
2024/01/16 06:26:40;;;;;;;2.40;1.77;;;-0.70;99.90;;;;;;5043233;28;20238;-70
2024/01/16 06:29:07;;;;;;;1.87;1.70;;;-0.70;99.90;;;;;;5047259;28;20742;-71
2024/01/16 06:31:34;;;;;;;1.97;1.50;;;-0.70;99.90;;;;;;5047227;28;20262;-71
2024/01/16 06:34:01;;;;;;;5.03;3.60;;;-0.80;99.90;;;;;;5047151;28;20769;-71
2024/01/16 06:36:28;;;;;;;4.53;3.23;;;-0.80;99.90;;;;;;5047365;28;20309;-70
2024/01/16 06:38:54;;;;;;;2.13;1.93;;;-0.70;99.90;;;;;;5047437;28;20298;-70
2024/01/16 06:41:23;;;;;;;1.70;1.60;;;-0.70;99.90;;;;;;5047381;28;20727;-70
2024/01/16 06:43:50;;;;;;;1.80;1.70;;;-0.70;99.90;;;;;;5047369;28;20266;-70
2024/01/16 06:46:16;;;;;;;1.50;1.40;;;-0.70;99.90;;;;;;5047056;28;20864;-70
2024/01/16 06:48:43;;;;;;;1.70;1.60;;;-0.70;99.90;;;;;;5047026;28;20299;-70
2024/01/16 06:51:13;;;;;;;4.87;3.60;;;-0.70;99.90;;;;;;5047189;28;20290;-70
2024/01/16 06:53:40;;;;;;;24.50;13.90;;;-0.60;99.90;;;;;;5046988;28;20224;-70
2024/01/16 06:56:07;;;;;;;9.60;6.30;;;-0.50;99.90;;;;;;5046856;28;20208;-70
2024/01/16 06:58:36;;;;;;;6.70;4.57;;;-0.40;99.90;;;;;;5046827;28;20243;-70
2024/01/16 07:01:03;;;;;;;20.17;12.47;;;-0.30;99.90;;;;;;5046486;28;20856;-70
2024/01/16 07:03:30;;;;;;;12.93;9.07;;;-0.40;99.90;;;;;;5046667;28;20335;-70
2024/01/16 07:05:57;;;;;;;5.80;5.20;;;-0.40;99.90;;;;;;5046295;28;20212;-70
2024/01/16 07:08:24;;;;;;;3.70;3.40;;;-0.50;99.90;;;;;;5046530;28;20302;-70
2024/01/16 07:10:51;;;;;;;4.40;2.20;;;-0.50;99.90;;;;;;5046300;28;20229;-70
2024/01/16 07:13:18;;;;;;;2.97;2.77;;;-0.50;99.90;;;;;;5046501;28;20242;-70
2024/01/16 07:15:46;;;;;;;2.80;2.60;;;-0.50;99.90;;;;;;5046607;28;20239;-70
2024/01/16 07:18:13;;;;;;;1.67;1.57;;;-0.50;99.90;;;;;;5046866;28;20231;-70
2024/01/16 07:20:40;;;;;;;2.63;2.43;;;-0.60;99.90;;;;;;5046144;28;20288;-70
2024/01/16 07:23:07;;;;;;;2.73;2.53;;;-0.60;99.90;;;;;;5046220;28;20291;-70
2024/01/16 07:25:34;;;;;;;1.80;1.70;;;-0.60;99.90;;;;;;5051639;28;20291;-70
2024/01/16 07:28:01;;;;;;;2.17;1.90;;;-0.60;99.90;;;;;;5053263;28;20212;-70
2024/01/16 07:30:28;;;;;;;2.63;2.00;;;-0.60;99.90;;;;;;5053306;28;20516;-70
2024/01/16 07:32:56;;;;;;;2.20;2.00;;;-0.50;99.90;;;;;;5052361;28;20777;-70
2024/01/16 07:35:23;;;;;;;2.37;2.17;;;-0.50;99.90;;;;;;5053142;28;20293;-70
2024/01/16 07:37:50;;;;;;;2.10;1.97;;;-0.40;99.90;;;;;;5052932;28;20294;-70
2024/01/16 07:40:17;;;;;;;2.03;1.70;;;-0.40;99.90;;;;;;5052776;28;20269;-70
2024/01/16 07:42:44;;;;;;;2.07;1.87;;;-0.40;99.90;;;;;;5053111;28;20207;-70
2024/01/16 07:45:11;;;;;;;2.93;2.10;;;-0.40;99.90;;;;;;5053067;28;20212;-70
2024/01/16 07:47:38;;;;;;;2.33;2.13;;;-0.40;99.90;;;;;;5052661;28;20742;-70
2024/01/16 07:50:07;;;;;;;3.10;1.90;;;-0.40;99.90;;;;;;5052996;28;20639;-70
2024/01/16 07:52:34;;;;;;;2.70;2.13;;;-0.40;99.90;;;;;;5052856;28;20290;-70
2024/01/16 07:55:01;;;;;;;4.00;2.20;;;-0.40;99.90;;;;;;5052782;28;20321;-70
2024/01/16 07:57:28;;;;;;;7.23;2.80;;;-0.40;99.90;;;;;;5052834;28;20228;-70
2024/01/16 07:59:55;;;;;;;2.63;2.40;;;-0.40;99.90;;;;;;5052716;28;20231;-70
2024/01/16 08:02:22;;;;;;;2.77;2.37;;;-0.30;99.90;;;;;;5052804;28;20314;-70
2024/01/16 08:04:49;;;;;;;4.53;2.80;;;-0.40;99.90;;;;;;5052446;28;20355;-70
2024/01/16 08:07:17;;;;;;;3.23;2.47;;;-0.30;99.90;;;;;;5052985;28;20235;-70
2024/01/16 08:09:44;;;;;;;3.23;2.23;;;-0.30;99.90;;;;;;5052748;28;20975;-70
2024/01/16 08:12:11;;;;;;;3.93;2.33;;;-0.30;99.90;;;;;;5052680;28;20250;-70
2024/01/16 08:14:38;;;;;;;2.30;2.20;;;-0.20;99.90;;;;;;5052590;28;20263;-70
2024/01/16 08:17:05;;;;;;;2.53;2.30;;;-0.20;99.90;;;;;;5052297;28;20369;-70
2024/01/16 08:19:32;;;;;;;3.43;2.43;;;-0.20;99.90;;;;;;5052656;28;20291;-71
2024/01/16 08:21:59;;;;;;;2.40;2.30;;;-0.20;99.90;;;;;;5052087;28;20254;-70
2024/01/16 08:24:27;;;;;;;4.57;2.20;;;-0.10;99.90;;;;;;5052376;28;20263;-70
2024/01/16 08:26:57;;;;;;;2.40;2.20;;;-0.10;99.90;;;;;;5052477;28;20300;-71
2024/01/16 08:29:24;;;;;;;2.50;2.30;;;-0.10;99.90;;;;;;5052742;28;20203;-70
2024/01/16 08:31:52;;;;;;;2.43;2.10;;;-0.10;99.90;;;;;;5052632;28;20235;-70
2024/01/16 08:34:19;;;;;;;2.63;2.30;;;0.00;99.90;;;;;;5052557;28;20769;-70
2024/01/16 08:36:47;;;;;;;3.27;2.20;;;0.00;99.90;;;;;;5049212;28;20215;-70
2024/01/16 08:39:15;;;;;;;2.67;2.47;;;-0.10;99.90;;;;;;5049498;28;20239;-70
2024/01/16 08:41:45;;;;;;;3.07;2.77;;;0.00;99.90;;;;;;5049317;28;20218;-71
2024/01/16 08:44:12;;;;;;;2.97;2.53;;;-0.10;99.90;;;;;;5049505;28;20216;-71
2024/01/16 08:46:39;;;;;;;4.40;2.60;;;0.00;99.90;;;;;;5049477;28;20236;-70
2024/01/16 08:49:06;;;;;;;2.67;2.43;;;-0.10;99.90;;;;;;5048848;28;20239;-70
2024/01/16 08:51:33;;;;;;;2.83;2.60;;;-0.10;99.90;;;;;;5049012;28;20291;-70
2024/01/16 08:53:59;;;;;;;3.70;2.77;;;-0.10;99.90;;;;;;5049154;28;21180;-71
2024/01/16 08:56:26;;;;;;;3.03;2.80;;;0.00;99.90;;;;;;5049272;28;20311;-70
2024/01/16 08:58:55;;;;;;;12.07;10.27;;;0.00;99.90;;;;;;5048770;28;20916;-70
2024/01/16 09:01:21;;;;;;;5.43;4.80;;;0.00;99.90;;;;;;5048933;28;20295;-70
2024/01/16 09:03:48;;;;;;;3.83;3.50;;;0.10;99.90;;;;;;5048553;28;20675;-71
2024/01/16 09:06:15;;;;;;;3.20;3.00;;;0.00;99.90;;;;;;5048539;28;20211;-70
2024/01/16 09:08:44;;;;;;;3.20;2.90;;;0.00;99.90;;;;;;5048857;28;20310;-70
2024/01/16 09:11:11;;;;;;;3.57;3.13;;;0.10;99.90;;;;;;5048834;28;20219;-70
2024/01/16 09:13:38;;;;;;;4.47;3.30;;;0.10;99.90;;;;;;5048300;28;20212;-70
2024/01/16 09:16:06;;;;;;;3.57;3.33;;;0.10;99.90;;;;;;5048357;28;20212;-72
2024/01/16 09:18:33;;;;;;;3.40;3.20;;;0.20;99.90;;;;;;5048700;28;20318;-70
2024/01/16 09:21:00;;;;;;;2.90;2.70;;;0.20;99.90;;;;;;5048676;28;20324;-70
2024/01/16 09:23:27;;;;;;;2.20;2.10;;;0.30;99.90;;;;;;5048592;28;20208;-70
2024/01/16 09:25:54;;;;;;;3.43;3.00;;;0.30;99.90;;;;;;5048166;28;20227;-70
2024/01/16 09:28:21;;;;;;;6.17;3.83;;;0.30;99.90;;;;;;5048550;28;20758;-70
2024/01/16 09:30:48;;;;;;;4.87;3.67;;;0.40;99.90;;;;;;5048809;28;20294;-70
2024/01/16 09:33:16;;;;;;;3.50;3.20;;;0.30;99.90;;;;;;5048760;28;20323;-70
2024/01/16 09:35:43;;;;;;;3.40;3.10;;;0.40;99.90;;;;;;5048362;28;20702;-70
2024/01/16 09:38:10;;;;;;;4.67;3.60;;;0.40;99.90;;;;;;5047854;28;20299;-71
2024/01/16 09:40:37;;;;;;;3.20;3.00;;;0.40;99.90;;;;;;5048184;28;20272;-71
2024/01/16 09:43:05;;;;;;;3.40;3.13;;;0.50;99.90;;;;;;5047834;28;20319;-70
2024/01/16 09:45:33;;;;;;;2.90;2.70;;;0.50;99.90;;;;;;5048549;28;20291;-70
2024/01/16 09:48:02;;;;;;;2.87;2.67;;;0.60;99.90;;;;;;5048190;28;20215;-71
2024/01/16 09:50:30;;;;;;;3.20;2.90;;;0.60;99.90;;;;;;5048372;28;20216;-70
2024/01/16 09:52:58;;;;;;;2.80;2.60;;;0.70;99.90;;;;;;5047836;28;20218;-70
2024/01/16 09:55:25;;;;;;;3.37;3.07;;;0.70;99.90;;;;;;5047754;28;20301;-70
2024/01/16 09:57:54;;;;;;;3.40;3.10;;;0.80;99.90;;;;;;5047946;28;20232;-70
2024/01/16 10:00:21;;;;;;;3.03;2.83;;;0.80;99.90;;;;;;5048250;28;20293;-70
2024/01/16 10:02:48;;;;;;;3.10;2.80;;;0.80;99.90;;;;;;5047698;28;20208;-70
2024/01/16 10:05:15;;;;;;;3.40;3.10;;;0.80;99.90;;;;;;5047560;28;20348;-70
2024/01/16 10:07:44;;;;;;;2.80;2.60;;;0.90;99.90;;;;;;5047828;28;20286;-70
2024/01/16 10:10:12;;;;;;;3.07;2.50;;;1.00;99.90;;;;;;5047476;28;20223;-70
2024/01/16 10:12:39;;;;;;;2.97;2.77;;;1.00;99.90;;;;;;5047834;28;20715;-70
2024/01/16 10:15:08;;;;;;;2.90;2.67;;;1.10;99.90;;;;;;5047900;28;20239;-70
2024/01/16 10:17:39;;;;;;;2.80;2.30;;;1.10;99.90;;;;;;5047671;28;20211;-70
2024/01/16 10:20:12;;;;;;;2.60;2.40;;;1.10;99.90;;;;;;5047516;28;20232;-70
2024/01/16 10:22:40;;;;;;;2.50;2.30;;;1.00;99.90;;;;;;5047708;28;20202;-70
2024/01/16 10:25:11;;;;;;;3.13;2.43;;;1.10;99.90;;;;;;5047015;28;20211;-70
2024/01/16 10:27:40;;;;;;;3.03;2.20;;;1.20;99.90;;;;;;5047723;28;20309;-70
2024/01/16 10:30:08;;;;;;;3.00;2.03;;;1.30;99.90;;;;;;5047180;28;20203;-70
2024/01/16 10:32:36;;;;;;;3.17;1.83;;;1.20;99.90;;;;;;5047629;28;20209;-70
2024/01/16 10:35:08;;;;;;;2.17;1.87;;;1.30;99.90;;;;;;5047056;28;20784;-70
2024/01/16 10:37:48;;;;;;;3.03;2.13;;;1.20;99.90;;;;;;5047527;28;20296;-70
2024/01/16 10:40:20;;;;;;;2.00;1.90;;;1.20;99.90;;;;;;5047241;28;20670;-70
2024/01/16 10:42:57;;;;;;;3.63;2.17;;;1.10;99.90;;;;;;5046899;28;20295;-70
2024/01/16 10:45:24;;;;;;;3.03;1.80;;;1.00;99.90;;;;;;5047347;28;20200;-70
2024/01/16 10:48:02;;;;;;;3.33;1.93;;;1.00;99.90;;;;;;5047185;28;20204;-70
2024/01/16 10:50:29;;;;;;;3.17;1.77;;;1.00;99.90;;;;;;5047630;28;20197;-70
2024/01/16 10:52:56;;;;;;;2.57;1.90;;;0.90;99.90;;;;;;5046706;28;20601;-70
2024/01/16 10:55:25;;;;;;;3.37;1.90;;;0.90;99.90;;;;;;5046785;28;20707;-70
2024/01/16 10:57:52;;;;;;;2.87;2.00;;;0.90;99.90;;;;;;5047033;28;20259;-70
2024/01/16 11:00:21;;;;;;;2.40;1.80;;;0.90;99.90;;;;;;5046436;28;20262;-71
2024/01/16 11:02:59;;;;;;;2.77;1.83;;;0.90;99.90;;;;;;5046846;28;20705;-71
2024/01/16 11:05:26;;;;;;;2.70;1.70;;;0.90;99.90;;;;;;5046612;28;20679;-70
2024/01/16 11:07:56;;;;;;;1.97;1.80;;;1.00;99.90;;;;;;5046222;28;20741;-70
2024/01/16 11:10:25;;;;;;;1.70;1.53;;;1.00;99.90;;;;;;5046975;28;20305;-70
2024/01/16 11:12:53;;;;;;;1.90;1.80;;;1.00;99.90;;;;;;5046688;28;20853;-71
2024/01/16 11:15:21;;;;;;;1.70;1.60;;;1.00;99.90;;;;;;5047144;28;20285;-70
2024/01/16 11:17:48;;;;;;;12.97;7.73;;;1.00;99.90;;;;;;5046729;28;20295;-70
2024/01/16 11:20:17;;;;;;;2.43;2.10;;;1.00;99.90;;;;;;5046879;28;20207;-70
2024/01/16 11:22:45;;;;;;;5.10;2.30;;;1.00;99.90;;;;;;5046530;28;20733;-70
2024/01/16 11:25:14;;;;;;;7.37;2.00;;;0.90;99.90;;;;;;5045884;28;20765;-70
2024/01/16 11:27:44;;;;;;;4.53;2.20;;;0.90;99.90;;;;;;5046532;28;20675;-70
2024/01/16 11:30:12;;;;;;;3.10;2.20;;;0.90;99.90;;;;;;5046341;28;20221;-70
2024/01/16 11:32:41;;;;;;;2.90;2.33;;;1.00;99.90;;;;;;5046867;28;20286;-70
2024/01/16 11:35:09;;;;;;;3.70;2.20;;;0.90;99.90;;;;;;5046348;28;20318;-70
2024/01/16 11:37:37;;;;;;;2.70;2.37;;;0.90;99.90;;;;;;5045958;28;20413;-70
2024/01/16 11:40:32;;;;;;;5.73;2.43;;;0.90;99.90;;;;;;5046278;28;20211;-70
2024/01/16 11:43:36;;;;;;;5.37;2.67;;;0.90;99.90;;;;;;5028811;28;20640;-71
2024/01/16 11:46:05;;;;;;;4.53;2.63;;;0.90;99.90;;;;;;5046745;28;20188;-70
2024/01/16 11:48:32;;;;;;;5.17;3.10;;;0.90;99.90;;;;;;5046562;28;20295;-70
2024/01/16 11:50:58;;;;;;;4.07;3.70;;;0.90;99.90;;;;;;5046685;28;20246;-70
2024/01/16 11:53:38;;;;;;;4.10;2.97;;;0.90;99.90;;;;;;5046249;28;20204;-70
2024/01/16 11:56:28;;;;;;;3.80;3.40;;;0.90;99.90;;;;;;5046229;28;20587;-70
2024/01/16 11:59:09;;;;;;;4.13;2.83;;;0.90;99.90;;;;;;5046134;28;20682;-70
2024/01/16 12:01:37;;;;;;;4.80;3.40;;;1.00;99.90;;;;;;5046464;28;20196;-70
2024/01/16 12:04:04;;;;;;;3.47;3.17;;;1.00;99.90;;;;;;5045831;28;20240;-70
2024/01/16 12:06:31;;;;;;;9.30;3.50;;;1.00;99.90;;;;;;5046339;28;20220;-70
2024/01/16 12:09:12;;;;;;;5.07;3.10;;;1.10;99.90;;;;;;5045842;28;20299;-70
2024/01/16 12:11:39;;;;;;;5.97;3.47;;;1.00;99.90;;;;;;5047371;28;20210;-70
2024/01/16 12:14:08;;;;;;;8.70;3.23;;;1.00;99.90;;;;;;5050100;28;20815;-70
2024/01/16 12:16:35;;;;;;;9.27;3.30;;;1.10;99.90;;;;;;5049477;28;20323;-70
2024/01/16 12:19:08;;;;;;;5.40;3.07;;;1.00;99.90;;;;;;5050129;28;20247;-70
2024/01/16 12:21:36;;;;;;;6.23;3.20;;;1.00;99.90;;;;;;5049557;28;20295;-70
2024/01/16 12:24:04;;;;;;;4.60;3.13;;;1.00;99.90;;;;;;5049854;28;20215;-70
2024/01/16 12:26:32;;;;;;;7.70;3.07;;;1.10;99.90;;;;;;5049594;28;20299;-70
2024/01/16 12:28:59;;;;;;;7.43;3.20;;;1.10;99.90;;;;;;5049703;28;20218;-70
2024/01/16 12:31:28;;;;;;;4.60;2.83;;;1.10;99.90;;;;;;5049679;28;20690;-70
2024/01/16 12:34:05;;;;;;;3.20;2.90;;;1.10;99.90;;;;;;5049700;28;20208;-70
2024/01/16 12:36:32;;;;;;;5.40;2.63;;;1.10;99.90;;;;;;5049418;28;20315;-70
2024/01/16 12:38:59;;;;;;;6.10;2.90;;;1.20;99.90;;;;;;5049047;28;20959;-70
2024/01/16 12:41:28;;;;;;;4.60;2.90;;;1.10;99.90;;;;;;5049305;28;20295;-70
2024/01/16 12:43:55;;;;;;;3.43;2.60;;;1.10;99.90;;;;;;5049459;28;20303;-70
2024/01/16 12:46:22;;;;;;;5.03;2.37;;;1.10;99.90;;;;;;5049586;28;20630;-70
2024/01/16 12:48:54;;;;;;;3.70;2.40;;;1.10;99.90;;;;;;5049385;28;20215;-71
2024/01/16 12:51:23;;;;;;;3.30;2.43;;;1.10;99.90;;;;;;5049307;28;20204;-70
2024/01/16 12:53:52;;;;;;;3.23;2.70;;;1.10;99.90;;;;;;5049308;28;20208;-70
2024/01/16 12:56:20;;;;;;;6.40;2.67;;;1.10;99.90;;;;;;5048936;28;20236;-70